sensor_id;sensor_type;location;lat;lon;timestamp;pressure;altitude;pressure_sealevel;temperature;humidity
49102;BME280;34913;47.520;19.186;2022-09-21T00:00:38;100228.28;;;8.12;95.16
49102;BME280;34913;47.520;19.186;2022-09-21T00:03:04;100246.59;;;8.15;95.43
49102;BME280;34913;47.520;19.186;2022-09-21T00:05:31;100228.81;;;8.04;95.71
49102;BME280;34913;47.520;19.186;2022-09-21T00:08:04;100232.72;;;8.11;95.97
49102;BME280;34913;47.520;19.186;2022-09-21T00:10:30;100235.06;;;8.16;96.26
49102;BME280;34913;47.520;19.186;2022-09-21T00:12:57;100234.72;;;8.21;95.86
49102;BME280;34913;47.520;19.186;2022-09-21T00:15:24;100237.81;;;8.27;95.41
49102;BME280;34913;47.520;19.186;2022-09-21T00:17:52;100238.22;;;8.34;95.24
49102;BME280;34913;47.520;19.186;2022-09-21T00:20:18;100235.94;;;8.42;94.41
49102;BME280;34913;47.520;19.186;2022-09-21T00:22:45;100240.47;;;8.40;94.16
49102;BME280;34913;47.520;19.186;2022-09-21T00:25:10;100251.69;;;8.44;95.53
49102;BME280;34913;47.520;19.186;2022-09-21T00:27:35;100251.06;;;8.40;95.71
49102;BME280;34913;47.520;19.186;2022-09-21T00:30:01;100244.59;;;8.44;95.28
49102;BME280;34913;47.520;19.186;2022-09-21T00:32:28;100252.00;;;8.52;95.01
49102;BME280;34913;47.520;19.186;2022-09-21T00:34:56;100246.09;;;8.48;94.26
49102;BME280;34913;47.520;19.186;2022-09-21T00:37:22;100236.66;;;8.44;94.19
49102;BME280;34913;47.520;19.186;2022-09-21T00:39:48;100242.47;;;8.49;94.59
49102;BME280;34913;47.520;19.186;2022-09-21T00:42:28;100242.69;;;8.59;94.42
49102;BME280;34913;47.520;19.186;2022-09-21T00:44:54;100239.84;;;8.62;94.24
49102;BME280;34913;47.520;19.186;2022-09-21T00:47:33;100246.47;;;8.67;93.66
49102;BME280;34913;47.520;19.186;2022-09-21T00:50:03;100242.13;;;8.66;93.83
49102;BME280;34913;47.520;19.186;2022-09-21T00:52:32;100244.47;;;8.71;93.70
49102;BME280;34913;47.520;19.186;2022-09-21T00:57:33;100247.13;;;8.71;93.41
49102;BME280;34913;47.520;19.186;2022-09-21T01:00:02;100247.44;;;8.66;94.03
49102;BME280;34913;47.520;19.186;2022-09-21T01:02:28;100246.59;;;8.66;94.54
49102;BME280;34913;47.520;19.186;2022-09-21T01:04:54;100254.09;;;8.59;94.45
49102;BME280;34913;47.520;19.186;2022-09-21T01:07:25;100246.06;;;8.61;94.97
49102;BME280;34913;47.520;19.186;2022-09-21T01:09:54;100244.16;;;8.63;95.27
49102;BME280;34913;47.520;19.186;2022-09-21T01:17:55;100240.63;;;8.75;94.62
49102;BME280;34913;47.520;19.186;2022-09-21T01:20:51;100243.94;;;8.79;94.42
49102;BME280;34913;47.520;19.186;2022-09-21T01:29:15;100241.88;;;8.82;93.75
49102;BME280;34913;47.520;19.186;2022-09-21T01:31:52;100245.59;;;8.80;93.09
49102;BME280;34913;47.520;19.186;2022-09-21T01:36:59;100253.25;;;8.59;94.43
49102;BME280;34913;47.520;19.186;2022-09-21T01:39:26;100246.09;;;8.48;94.55
49102;BME280;34913;47.520;19.186;2022-09-21T01:41:55;100246.84;;;8.37;95.68
49102;BME280;34913;47.520;19.186;2022-09-21T01:44:26;100253.56;;;8.29;96.58
49102;BME280;34913;47.520;19.186;2022-09-21T01:46:53;100251.44;;;8.21;97.50
49102;BME280;34913;47.520;19.186;2022-09-21T01:49:26;100252.38;;;8.20;97.92
49102;BME280;34913;47.520;19.186;2022-09-21T01:52:21;100255.16;;;8.19;98.20
49102;BME280;34913;47.520;19.186;2022-09-21T01:54:52;100259.69;;;8.29;97.62
49102;BME280;34913;47.520;19.186;2022-09-21T01:57:42;100254.94;;;8.34;96.91
49102;BME280;34913;47.520;19.186;2022-09-21T02:00:09;100257.41;;;8.37;96.43
49102;BME280;34913;47.520;19.186;2022-09-21T02:02:54;100251.03;;;8.27;96.21
49102;BME280;34913;47.520;19.186;2022-09-21T02:05:24;100253.25;;;8.33;96.44
49102;BME280;34913;47.520;19.186;2022-09-21T02:07:51;100257.69;;;8.33;96.43
49102;BME280;34913;47.520;19.186;2022-09-21T02:10:22;100260.16;;;8.36;96.15
49102;BME280;34913;47.520;19.186;2022-09-21T02:12:52;100259.78;;;8.28;96.39
49102;BME280;34913;47.520;19.186;2022-09-21T02:15:25;100251.13;;;8.26;96.34
49102;BME280;34913;47.520;19.186;2022-09-21T02:20:27;100263.94;;;8.45;96.02
49102;BME280;34913;47.520;19.186;2022-09-21T02:23:02;100267.13;;;8.37;95.64
49102;BME280;34913;47.520;19.186;2022-09-21T02:25:52;100261.28;;;8.19;96.03
49102;BME280;34913;47.520;19.186;2022-09-21T02:28:23;100274.09;;;8.25;96.64
49102;BME280;34913;47.520;19.186;2022-09-21T02:31:08;100257.59;;;8.22;96.51
49102;BME280;34913;47.520;19.186;2022-09-21T02:33:43;100274.38;;;8.21;96.94
49102;BME280;34913;47.520;19.186;2022-09-21T02:39:08;100268.56;;;8.28;97.34
49102;BME280;34913;47.520;19.186;2022-09-21T02:42:02;100271.38;;;8.39;96.51
49102;BME280;34913;47.520;19.186;2022-09-21T02:44:35;100262.97;;;8.33;95.79
49102;BME280;34913;47.520;19.186;2022-09-21T02:47:29;100267.13;;;8.37;95.96
49102;BME280;34913;47.520;19.186;2022-09-21T02:50:03;100270.41;;;8.41;95.72
49102;BME280;34913;47.520;19.186;2022-09-21T02:52:31;100281.00;;;8.41;96.09
49102;BME280;34913;47.520;19.186;2022-09-21T02:55:00;100281.00;;;8.41;96.19
49102;BME280;34913;47.520;19.186;2022-09-21T02:57:26;100278.00;;;8.32;96.45
49102;BME280;34913;47.520;19.186;2022-09-21T02:59:52;100277.81;;;8.35;96.56
49102;BME280;34913;47.520;19.186;2022-09-21T03:02:17;100285.22;;;8.43;96.86
49102;BME280;34913;47.520;19.186;2022-09-21T03:04:44;100286.28;;;8.41;96.79
49102;BME280;34913;47.520;19.186;2022-09-21T03:07:17;100274.72;;;8.29;97.01
49102;BME280;34913;47.520;19.186;2022-09-21T03:09:42;100278.19;;;8.29;97.29
49102;BME280;34913;47.520;19.186;2022-09-21T03:12:08;100280.53;;;8.34;97.25
49102;BME280;34913;47.520;19.186;2022-09-21T03:14:33;100293.38;;;8.40;97.28
49102;BME280;34913;47.520;19.186;2022-09-21T03:16:59;100276.56;;;8.41;97.23
49102;BME280;34913;47.520;19.186;2022-09-21T03:19:25;100283.00;;;8.50;96.53
49102;BME280;34913;47.520;19.186;2022-09-21T03:21:51;100294.56;;;8.61;96.13
49102;BME280;34913;47.520;19.186;2022-09-21T03:24:16;100294.44;;;8.63;95.82
49102;BME280;34913;47.520;19.186;2022-09-21T03:27:01;100293.06;;;8.57;95.06
49102;BME280;34913;47.520;19.186;2022-09-21T03:29:27;100291.47;;;8.55;95.67
49102;BME280;34913;47.520;19.186;2022-09-21T03:31:52;100279.41;;;8.51;95.50
49102;BME280;34913;47.520;19.186;2022-09-21T03:34:19;100296.44;;;8.59;95.06
49102;BME280;34913;47.520;19.186;2022-09-21T03:36:45;100294.25;;;8.53;95.27
49102;BME280;34913;47.520;19.186;2022-09-21T03:39:11;100299.63;;;8.64;95.64
49102;BME280;34913;47.520;19.186;2022-09-21T03:41:36;100302.88;;;8.68;95.49
49102;BME280;34913;47.520;19.186;2022-09-21T03:44:02;100290.94;;;8.62;94.97
49102;BME280;34913;47.520;19.186;2022-09-21T03:46:28;100304.25;;;8.61;95.14
49102;BME280;34913;47.520;19.186;2022-09-21T03:48:54;100304.59;;;8.56;95.10
49102;BME280;34913;47.520;19.186;2022-09-21T03:51:19;100310.50;;;8.60;95.63
49102;BME280;34913;47.520;19.186;2022-09-21T03:53:45;100294.31;;;8.52;95.52
49102;BME280;34913;47.520;19.186;2022-09-21T03:56:10;100307.66;;;8.50;95.62
49102;BME280;34913;47.520;19.186;2022-09-21T03:58:35;100307.03;;;8.47;95.79
49102;BME280;34913;47.520;19.186;2022-09-21T04:01:02;100303.97;;;8.40;96.00
49102;BME280;34913;47.520;19.186;2022-09-21T04:03:28;100312.75;;;8.41;96.03
49102;BME280;34913;47.520;19.186;2022-09-21T04:05:54;100321.75;;;8.38;96.31
49102;BME280;34913;47.520;19.186;2022-09-21T04:08:19;100300.63;;;8.24;96.52
49102;BME280;34913;47.520;19.186;2022-09-21T04:10:45;100318.41;;;8.34;96.73
49102;BME280;34913;47.520;19.186;2022-09-21T04:13:14;100323.81;;;8.33;96.37
49102;BME280;34913;47.520;19.186;2022-09-21T04:15:40;100319.47;;;8.32;96.20
49102;BME280;34913;47.520;19.186;2022-09-21T04:18:06;100319.66;;;8.29;96.48
49102;BME280;34913;47.520;19.186;2022-09-21T04:20:31;100307.91;;;8.20;96.06
49102;BME280;34913;47.520;19.186;2022-09-21T04:22:57;100310.66;;;8.19;96.49
49102;BME280;34913;47.520;19.186;2022-09-21T04:25:24;100317.34;;;8.24;96.97
49102;BME280;34913;47.520;19.186;2022-09-21T04:27:49;100307.06;;;8.20;96.15
49102;BME280;34913;47.520;19.186;2022-09-21T04:30:16;100313.31;;;8.19;96.08
49102;BME280;34913;47.520;19.186;2022-09-21T04:32:41;100318.94;;;8.14;96.27
49102;BME280;34913;47.520;19.186;2022-09-21T04:35:07;100325.28;;;8.24;96.71
49102;BME280;34913;47.520;19.186;2022-09-21T04:37:33;100327.41;;;8.32;96.77
49102;BME280;34913;47.520;19.186;2022-09-21T04:39:58;100333.09;;;8.26;95.91
49102;BME280;34913;47.520;19.186;2022-09-21T04:42:24;100336.72;;;8.25;96.67
49102;BME280;34913;47.520;19.186;2022-09-21T04:44:51;100343.09;;;8.35;96.44
49102;BME280;34913;47.520;19.186;2022-09-21T04:47:17;100338.78;;;8.47;95.74
49102;BME280;34913;47.520;19.186;2022-09-21T04:49:43;100339.81;;;8.44;95.09
49102;BME280;34913;47.520;19.186;2022-09-21T04:52:08;100347.34;;;8.50;95.30
49102;BME280;34913;47.520;19.186;2022-09-21T04:54:34;100338.00;;;8.45;95.28
49102;BME280;34913;47.520;19.186;2022-09-21T04:56:59;100345.09;;;8.44;94.84
49102;BME280;34913;47.520;19.186;2022-09-21T04:59:25;100340.78;;;8.43;95.34
49102;BME280;34913;47.520;19.186;2022-09-21T05:01:50;100353.59;;;8.49;94.66
49102;BME280;34913;47.520;19.186;2022-09-21T05:04:15;100350.16;;;8.34;94.54
49102;BME280;34913;47.520;19.186;2022-09-21T05:06:41;100352.91;;;8.33;95.23
49102;BME280;34913;47.520;19.186;2022-09-21T05:09:07;100348.28;;;8.36;95.66
49102;BME280;34913;47.520;19.186;2022-09-21T05:11:51;100344.16;;;8.45;95.14
49102;BME280;34913;47.520;19.186;2022-09-21T05:14:17;100343.97;;;8.48;95.38
49102;BME280;34913;47.520;19.186;2022-09-21T05:16:42;100354.88;;;8.56;94.86
49102;BME280;34913;47.520;19.186;2022-09-21T05:19:08;100340.78;;;8.56;95.02
49102;BME280;34913;47.520;19.186;2022-09-21T05:21:33;100353.91;;;8.57;94.93
49102;BME280;34913;47.520;19.186;2022-09-21T05:24:01;100356.84;;;8.53;95.00
49102;BME280;34913;47.520;19.186;2022-09-21T05:26:27;100365.34;;;8.58;95.03
49102;BME280;34913;47.520;19.186;2022-09-21T05:28:52;100359.41;;;8.67;94.77
49102;BME280;34913;47.520;19.186;2022-09-21T05:31:44;100363.97;;;8.78;94.24
49102;BME280;34913;47.520;19.186;2022-09-21T05:34:42;100367.97;;;8.83;93.98
49102;BME280;34913;47.520;19.186;2022-09-21T05:37:36;100367.97;;;8.96;93.44
49102;BME280;34913;47.520;19.186;2022-09-21T05:40:05;100375.28;;;9.05;92.25
49102;BME280;34913;47.520;19.186;2022-09-21T05:42:31;100362.75;;;9.07;92.29
49102;BME280;34913;47.520;19.186;2022-09-21T05:44:57;100369.31;;;9.14;91.58
49102;BME280;34913;47.520;19.186;2022-09-21T05:47:35;100362.31;;;9.26;91.16
49102;BME280;34913;47.520;19.186;2022-09-21T06:01:42;100371.00;;;10.48;83.81
49102;BME280;34913;47.520;19.186;2022-09-21T06:04:11;100358.13;;;10.54;82.09
49102;BME280;34913;47.520;19.186;2022-09-21T06:06:39;100368.53;;;10.69;82.88
49102;BME280;34913;47.520;19.186;2022-09-21T06:09:05;100367.56;;;10.81;80.35
49102;BME280;34913;47.520;19.186;2022-09-21T06:11:30;100372.53;;;10.97;80.38
49102;BME280;34913;47.520;19.186;2022-09-21T06:13:56;100356.47;;;11.21;78.83
49102;BME280;34913;47.520;19.186;2022-09-21T06:16:21;100374.88;;;11.89;74.43
49102;BME280;34913;47.520;19.186;2022-09-21T06:18:47;100372.06;;;12.23;72.87
49102;BME280;34913;47.520;19.186;2022-09-21T06:21:12;100373.25;;;12.30;72.03
49102;BME280;34913;47.520;19.186;2022-09-21T06:23:38;100379.06;;;12.56;71.71
49102;BME280;34913;47.520;19.186;2022-09-21T06:26:03;100375.00;;;12.82;70.43
49102;BME280;34913;47.520;19.186;2022-09-21T06:28:29;100371.03;;;13.28;69.00
49102;BME280;34913;47.520;19.186;2022-09-21T06:30:55;100381.91;;;13.56;67.84
49102;BME280;34913;47.520;19.186;2022-09-21T06:33:21;100373.97;;;14.14;65.66
49102;BME280;34913;47.520;19.186;2022-09-21T06:35:52;100371.88;;;14.66;63.45
49102;BME280;34913;47.520;19.186;2022-09-21T06:38:18;100381.22;;;14.89;62.15
49102;BME280;34913;47.520;19.186;2022-09-21T06:40:43;100375.56;;;15.02;61.80
49102;BME280;34913;47.520;19.186;2022-09-21T06:43:09;100370.16;;;15.21;61.03
49102;BME280;34913;47.520;19.186;2022-09-21T06:45:34;100375.06;;;15.53;59.55
49102;BME280;34913;47.520;19.186;2022-09-21T06:48:00;100377.16;;;16.05;57.67
49102;BME280;34913;47.520;19.186;2022-09-21T06:50:25;100376.34;;;15.95;57.81
49102;BME280;34913;47.520;19.186;2022-09-21T06:52:50;100382.88;;;15.92;57.38
49102;BME280;34913;47.520;19.186;2022-09-21T06:55:16;100377.91;;;15.97;57.48
49102;BME280;34913;47.520;19.186;2022-09-21T06:57:41;100389.63;;;16.14;56.87
49102;BME280;34913;47.520;19.186;2022-09-21T07:00:10;100386.94;;;16.32;56.06
49102;BME280;34913;47.520;19.186;2022-09-21T07:02:36;100385.25;;;16.31;56.22
49102;BME280;34913;47.520;19.186;2022-09-21T07:05:02;100387.31;;;16.19;56.38
49102;BME280;34913;47.520;19.186;2022-09-21T07:07:28;100375.47;;;16.22;55.50
49102;BME280;34913;47.520;19.186;2022-09-21T07:09:57;100387.13;;;16.56;55.33
49102;BME280;34913;47.520;19.186;2022-09-21T07:12:27;100379.94;;;15.68;56.52
49102;BME280;34913;47.520;19.186;2022-09-21T07:14:52;100382.81;;;15.56;57.98
49102;BME280;34913;47.520;19.186;2022-09-21T07:17:18;100382.03;;;16.09;56.60
49102;BME280;34913;47.520;19.186;2022-09-21T07:19:44;100380.84;;;16.04;56.43
49102;BME280;34913;47.520;19.186;2022-09-21T07:22:10;100386.63;;;16.17;55.03
49102;BME280;34913;47.520;19.186;2022-09-21T07:24:35;100381.19;;;16.27;54.53
49102;BME280;34913;47.520;19.186;2022-09-21T07:27:01;100375.06;;;16.34;54.99
49102;BME280;34913;47.520;19.186;2022-09-21T07:29:26;100384.56;;;16.29;54.71
49102;BME280;34913;47.520;19.186;2022-09-21T07:31:52;100382.25;;;15.80;57.04
49102;BME280;34913;47.520;19.186;2022-09-21T07:34:17;100392.53;;;16.21;55.95
49102;BME280;34913;47.520;19.186;2022-09-21T07:36:42;100389.56;;;16.67;55.11
49102;BME280;34913;47.520;19.186;2022-09-21T07:39:09;100387.84;;;16.40;54.72
49102;BME280;34913;47.520;19.186;2022-09-21T07:41:35;100387.84;;;16.40;55.27
49102;BME280;34913;47.520;19.186;2022-09-21T07:44:01;100378.97;;;16.66;54.65
49102;BME280;34913;47.520;19.186;2022-09-21T07:46:27;100383.34;;;17.11;53.61
49102;BME280;34913;47.520;19.186;2022-09-21T07:48:53;100398.63;;;17.18;52.27
49102;BME280;34913;47.520;19.186;2022-09-21T07:51:19;100394.69;;;17.30;51.10
49102;BME280;34913;47.520;19.186;2022-09-21T07:53:45;100394.66;;;17.22;53.03
49102;BME280;34913;47.520;19.186;2022-09-21T07:56:13;100387.22;;;16.90;52.12
49102;BME280;34913;47.520;19.186;2022-09-21T07:58:39;100386.00;;;17.11;52.20
49102;BME280;34913;47.520;19.186;2022-09-21T08:01:24;100393.44;;;17.17;52.12
49102;BME280;34913;47.520;19.186;2022-09-21T08:03:53;100399.72;;;16.82;53.86
49102;BME280;34913;47.520;19.186;2022-09-21T08:06:19;100394.66;;;16.53;55.08
49102;BME280;34913;47.520;19.186;2022-09-21T08:08:45;100402.06;;;16.77;55.87
49102;BME280;34913;47.520;19.186;2022-09-21T08:11:13;100398.38;;;16.78;53.01
49102;BME280;34913;47.520;19.186;2022-09-21T08:13:38;100404.00;;;16.92;55.38
49102;BME280;34913;47.520;19.186;2022-09-21T08:16:04;100385.41;;;16.91;53.78
49102;BME280;34913;47.520;19.186;2022-09-21T08:18:29;100404.47;;;16.88;54.43
49102;BME280;34913;47.520;19.186;2022-09-21T08:20:59;100395.91;;;16.84;55.53
49102;BME280;34913;47.520;19.186;2022-09-21T08:23:25;100405.03;;;16.91;56.12
49102;BME280;34913;47.520;19.186;2022-09-21T08:26:03;100403.53;;;16.97;55.84
49102;BME280;34913;47.520;19.186;2022-09-21T08:28:33;100391.78;;;16.98;55.53
49102;BME280;34913;47.520;19.186;2022-09-21T08:31:00;100408.06;;;17.22;55.14
49102;BME280;34913;47.520;19.186;2022-09-21T08:33:26;100400.97;;;17.21;55.08
49102;BME280;34913;47.520;19.186;2022-09-21T08:35:53;100389.13;;;17.24;53.28
49102;BME280;34913;47.520;19.186;2022-09-21T08:38:19;100401.38;;;17.35;54.26
49102;BME280;34913;47.520;19.186;2022-09-21T08:40:44;100406.97;;;17.41;53.46
49102;BME280;34913;47.520;19.186;2022-09-21T08:43:13;100398.63;;;17.61;53.67
49102;BME280;34913;47.520;19.186;2022-09-21T08:45:43;100395.38;;;17.41;54.23
49102;BME280;34913;47.520;19.186;2022-09-21T08:48:19;100398.13;;;17.15;55.92
49102;BME280;34913;47.520;19.186;2022-09-21T08:50:58;100396.66;;;17.28;55.91
49102;BME280;34913;47.520;19.186;2022-09-21T08:53:32;100402.31;;;17.51;55.67
49102;BME280;34913;47.520;19.186;2022-09-21T08:55:59;100396.03;;;17.35;53.79
49102;BME280;34913;47.520;19.186;2022-09-21T08:58:27;100394.59;;;17.14;55.88
49102;BME280;34913;47.520;19.186;2022-09-21T09:06:19;100401.97;;;17.97;52.68
49102;BME280;34913;47.520;19.186;2022-09-21T09:12:16;100394.75;;;17.47;53.48
49102;BME280;34913;47.520;19.186;2022-09-21T09:17:26;100392.59;;;17.16;52.19
49102;BME280;34913;47.520;19.186;2022-09-21T09:20:13;100383.91;;;16.96;49.92
49102;BME280;34913;47.520;19.186;2022-09-21T09:22:47;100388.03;;;17.09;49.09
49102;BME280;34913;47.520;19.186;2022-09-21T09:25:19;100393.78;;;17.22;48.21
49102;BME280;34913;47.520;19.186;2022-09-21T09:27:49;100391.16;;;17.30;46.80
49102;BME280;34913;47.520;19.186;2022-09-21T09:30:24;100394.47;;;17.24;50.92
49102;BME280;34913;47.520;19.186;2022-09-21T09:33:09;100398.94;;;17.49;48.25
49102;BME280;34913;47.520;19.186;2022-09-21T09:35:51;100398.91;;;17.75;47.23
49102;BME280;34913;47.520;19.186;2022-09-21T09:38:26;100390.59;;;18.03;47.31
49102;BME280;34913;47.520;19.186;2022-09-21T09:43:51;100375.69;;;18.25;51.67
49102;BME280;34913;47.520;19.186;2022-09-21T09:52:04;100387.75;;;18.45;51.34
49102;BME280;34913;47.520;19.186;2022-09-21T09:54:33;100389.94;;;18.58;50.91
49102;BME280;34913;47.520;19.186;2022-09-21T09:57:04;100384.41;;;18.76;49.91
49102;BME280;34913;47.520;19.186;2022-09-21T09:59:47;100376.97;;;18.94;49.45
49102;BME280;34913;47.520;19.186;2022-09-21T10:04:54;100373.84;;;18.74;50.07
49102;BME280;34913;47.520;19.186;2022-09-21T10:07:33;100387.44;;;18.81;49.18
49102;BME280;34913;47.520;19.186;2022-09-21T10:09:59;100369.59;;;18.47;47.73
49102;BME280;34913;47.520;19.186;2022-09-21T10:12:24;100370.31;;;18.65;49.13
49102;BME280;34913;47.520;19.186;2022-09-21T10:14:55;100360.03;;;18.77;47.45
49102;BME280;34913;47.520;19.186;2022-09-21T10:17:23;100367.88;;;19.03;48.30
49102;BME280;34913;47.520;19.186;2022-09-21T10:19:58;100365.47;;;19.16;47.16
49102;BME280;34913;47.520;19.186;2022-09-21T10:22:24;100361.03;;;18.76;49.97
49102;BME280;34913;47.520;19.186;2022-09-21T10:24:51;100372.41;;;19.03;47.65
49102;BME280;34913;47.520;19.186;2022-09-21T10:27:34;100362.13;;;19.14;46.47
49102;BME280;34913;47.520;19.186;2022-09-21T10:30:01;100357.38;;;19.24;46.87
49102;BME280;34913;47.520;19.186;2022-09-21T10:32:27;100361.91;;;19.32;46.11
49102;BME280;34913;47.520;19.186;2022-09-21T10:37:26;100364.94;;;18.25;46.88
49102;BME280;34913;47.520;19.186;2022-09-21T10:39:53;100359.66;;;17.91;46.74
49102;BME280;34913;47.520;19.186;2022-09-21T10:42:20;100361.88;;;18.20;48.30
49102;BME280;34913;47.520;19.186;2022-09-21T10:44:51;100366.75;;;18.16;47.52
49102;BME280;34913;47.520;19.186;2022-09-21T10:47:18;100364.75;;;18.10;48.52
49102;BME280;34913;47.520;19.186;2022-09-21T10:49:49;100361.72;;;18.13;48.39
49102;BME280;34913;47.520;19.186;2022-09-21T10:52:17;100350.47;;;18.50;49.20
49102;BME280;34913;47.520;19.186;2022-09-21T10:54:47;100357.19;;;18.46;46.30
49102;BME280;34913;47.520;19.186;2022-09-21T10:57:17;100363.38;;;18.55;48.01
49102;BME280;34913;47.520;19.186;2022-09-21T10:59:43;100361.88;;;18.20;48.70
49102;BME280;34913;47.520;19.186;2022-09-21T11:07:32;100363.50;;;19.02;47.25
49102;BME280;34913;47.520;19.186;2022-09-21T11:10:18;100352.13;;;18.59;48.18
49102;BME280;34913;47.520;19.186;2022-09-21T11:20:58;100350.75;;;17.74;48.44
49102;BME280;34913;47.520;19.186;2022-09-21T11:26:20;100333.75;;;17.65;49.32
49102;BME280;34913;47.520;19.186;2022-09-21T11:29:28;100340.03;;;18.23;48.24
49102;BME280;34913;47.520;19.186;2022-09-21T11:32:08;100345.59;;;18.13;45.49
49102;BME280;34913;47.520;19.186;2022-09-21T11:40:52;100336.66;;;17.80;48.05
49102;BME280;34913;47.520;19.186;2022-09-21T11:46:31;100338.44;;;17.63;47.69
49102;BME280;34913;47.520;19.186;2022-09-21T12:11:45;100287.81;;;19.13;45.07
49102;BME280;34913;47.520;19.186;2022-09-21T12:17:02;100272.13;;;19.17;42.30
49102;BME280;34913;47.520;19.186;2022-09-21T12:19:54;100293.50;;;19.18;43.46
49102;BME280;34913;47.520;19.186;2022-09-21T12:22:34;100290.19;;;19.08;42.04
49102;BME280;34913;47.520;19.186;2022-09-21T12:25:12;100291.38;;;19.06;43.13
49102;BME280;34913;47.520;19.186;2022-09-21T12:30:26;100280.22;;;18.69;46.38
49102;BME280;34913;47.520;19.186;2022-09-21T12:35:46;100275.72;;;18.37;47.56
49102;BME280;34913;47.520;19.186;2022-09-21T12:38:30;100283.13;;;18.27;46.30
49102;BME280;34913;47.520;19.186;2022-09-21T12:43:36;100283.13;;;17.78;45.75
49102;BME280;34913;47.520;19.186;2022-09-21T12:46:08;100278.25;;;17.74;46.34
49102;BME280;34913;47.520;19.186;2022-09-21T12:48:37;100279.44;;;17.71;46.66
49102;BME280;34913;47.520;19.186;2022-09-21T12:51:09;100287.66;;;17.78;47.45
49102;BME280;34913;47.520;19.186;2022-09-21T12:53:39;100275.09;;;17.95;49.12
49102;BME280;34913;47.520;19.186;2022-09-21T13:09:22;100269.19;;;18.16;47.11
49102;BME280;34913;47.520;19.186;2022-09-21T13:11:57;100282.47;;;18.25;47.34
49102;BME280;34913;47.520;19.186;2022-09-21T13:14:30;100270.56;;;18.03;46.00
49102;BME280;34913;47.520;19.186;2022-09-21T13:17:02;100268.34;;;17.99;48.26
49102;BME280;34913;47.520;19.186;2022-09-21T13:19:31;100253.25;;;18.14;46.97
49102;BME280;34913;47.520;19.186;2022-09-21T13:22:21;100261.09;;;18.32;46.03
49102;BME280;34913;47.520;19.186;2022-09-21T13:28:00;100267.16;;;18.42;46.83
49102;BME280;34913;47.520;19.186;2022-09-21T13:32:53;100261.06;;;18.48;46.95
49102;BME280;34913;47.520;19.186;2022-09-21T13:38:33;100269.66;;;18.52;46.50
49102;BME280;34913;47.520;19.186;2022-09-21T13:54:35;100281.56;;;17.68;51.31
49102;BME280;34913;47.520;19.186;2022-09-21T13:57:14;100285.97;;;17.18;52.37
49102;BME280;34913;47.520;19.186;2022-09-21T13:59:41;100275.28;;;16.66;54.33
49102;BME280;34913;47.520;19.186;2022-09-21T14:02:32;100286.63;;;16.08;54.67
49102;BME280;34913;47.520;19.186;2022-09-21T14:05:07;100267.25;;;15.88;55.83
49102;BME280;34913;47.520;19.186;2022-09-21T14:07:35;100272.09;;;15.57;57.37
49102;BME280;34913;47.520;19.186;2022-09-21T14:10:04;100274.81;;;15.48;57.99
49102;BME280;34913;47.520;19.186;2022-09-21T14:12:37;100276.38;;;15.32;58.64
49102;BME280;34913;47.520;19.186;2022-09-21T14:15:30;100272.34;;;15.19;57.93
49102;BME280;34913;47.520;19.186;2022-09-21T14:21:09;100269.78;;;15.27;57.62
49102;BME280;34913;47.520;19.186;2022-09-21T14:23:37;100274.72;;;15.22;57.75
49102;BME280;34913;47.520;19.186;2022-09-21T14:26:30;100273.63;;;15.15;59.46
49102;BME280;34913;47.520;19.186;2022-09-21T14:28:57;100248.56;;;15.16;58.13
49102;BME280;34913;47.520;19.186;2022-09-21T14:31:32;100257.69;;;15.23;55.28
49102;BME280;34913;47.520;19.186;2022-09-21T14:34:01;100253.66;;;15.36;54.82
49102;BME280;34913;47.520;19.186;2022-09-21T14:36:35;100259.41;;;15.59;54.34
49102;BME280;34913;47.520;19.186;2022-09-21T14:39:13;100260.03;;;15.71;53.92
49102;BME280;34913;47.520;19.186;2022-09-21T14:41:42;100268.69;;;15.83;52.08
49102;BME280;34913;47.520;19.186;2022-09-21T14:44:20;100265.00;;;15.84;52.94
49102;BME280;34913;47.520;19.186;2022-09-21T14:53:05;100259.34;;;16.05;53.63
49102;BME280;34913;47.520;19.186;2022-09-21T14:55:47;100249.88;;;16.18;53.00
49102;BME280;34913;47.520;19.186;2022-09-21T15:01:20;100244.59;;;16.27;51.17
49102;BME280;34913;47.520;19.186;2022-09-21T15:04:11;100252.47;;;16.28;52.46
49102;BME280;34913;47.520;19.186;2022-09-21T15:10:12;100254.94;;;16.47;49.49
49102;BME280;34913;47.520;19.186;2022-09-21T15:13:07;100259.63;;;16.45;49.00
49102;BME280;34913;47.520;19.186;2022-09-21T15:18:15;100263.59;;;16.41;49.54
49102;BME280;34913;47.520;19.186;2022-09-21T15:21:00;100259.41;;;16.39;50.43
49102;BME280;34913;47.520;19.186;2022-09-21T15:23:46;100262.25;;;16.37;49.37
49102;BME280;34913;47.520;19.186;2022-09-21T15:26:17;100258.34;;;16.32;49.30
49102;BME280;34913;47.520;19.186;2022-09-21T15:28:47;100261.81;;;16.24;50.38
49102;BME280;34913;47.520;19.186;2022-09-21T15:31:15;100259.06;;;16.16;50.94
49102;BME280;34913;47.520;19.186;2022-09-21T15:33:42;100264.00;;;16.03;50.97
49102;BME280;34913;47.520;19.186;2022-09-21T15:36:11;100259.78;;;16.00;51.12
49102;BME280;34913;47.520;19.186;2022-09-21T15:38:37;100269.44;;;15.93;51.40
49102;BME280;34913;47.520;19.186;2022-09-21T15:41:04;100256.81;;;15.85;50.81
49102;BME280;34913;47.520;19.186;2022-09-21T15:43:31;100257.81;;;15.84;51.70
49102;BME280;34913;47.520;19.186;2022-09-21T15:46:03;100264.25;;;15.74;50.36
49102;BME280;34913;47.520;19.186;2022-09-21T15:48:37;100262.88;;;15.70;51.98
49102;BME280;34913;47.520;19.186;2022-09-21T15:53:49;100275.56;;;15.68;51.22
49102;BME280;34913;47.520;19.186;2022-09-21T15:56:19;100272.66;;;15.61;51.99